sensor_id;sensor_type;location;lat;lon;timestamp;P1;durP1;ratioP1;P2;durP2;ratioP2
7659;SDS011;3872;47.902;8.162;2024-01-30T00:00:04;4.33;;;1.70;;
7659;SDS011;3872;47.902;8.162;2024-01-30T00:02:33;5.10;;;2.10;;
7659;SDS011;3872;47.902;8.162;2024-01-30T00:05:01;5.60;;;2.97;;
7659;SDS011;3872;47.902;8.162;2024-01-30T00:07:28;4.33;;;1.97;;
7659;SDS011;3872;47.902;8.162;2024-01-30T00:09:55;4.63;;;1.90;;
7659;SDS011;3872;47.902;8.162;2024-01-30T00:12:21;6.13;;;2.13;;
7659;SDS011;3872;47.902;8.162;2024-01-30T00:14:48;4.10;;;1.83;;
7659;SDS011;3872;47.902;8.162;2024-01-30T00:17:14;6.60;;;2.60;;
7659;SDS011;3872;47.902;8.162;2024-01-30T00:19:41;4.20;;;1.70;;
7659;SDS011;3872;47.902;8.162;2024-01-30T00:22:09;5.20;;;2.10;;
7659;SDS011;3872;47.902;8.162;2024-01-30T00:24:35;3.80;;;1.83;;
7659;SDS011;3872;47.902;8.162;2024-01-30T00:27:02;3.70;;;1.60;;
7659;SDS011;3872;47.902;8.162;2024-01-30T00:29:29;4.73;;;1.73;;
7659;SDS011;3872;47.902;8.162;2024-01-30T00:31:58;4.23;;;2.07;;
7659;SDS011;3872;47.902;8.162;2024-01-30T00:34:26;5.50;;;2.20;;
7659;SDS011;3872;47.902;8.162;2024-01-30T00:36:52;3.87;;;1.83;;
7659;SDS011;3872;47.902;8.162;2024-01-30T00:39:20;6.37;;;2.30;;
7659;SDS011;3872;47.902;8.162;2024-01-30T00:41:47;4.97;;;1.90;;
7659;SDS011;3872;47.902;8.162;2024-01-30T00:44:13;5.03;;;2.23;;
7659;SDS011;3872;47.902;8.162;2024-01-30T00:46:40;4.50;;;2.47;;
7659;SDS011;3872;47.902;8.162;2024-01-30T00:49:06;4.80;;;1.83;;
7659;SDS011;3872;47.902;8.162;2024-01-30T00:51:33;4.30;;;2.20;;
7659;SDS011;3872;47.902;8.162;2024-01-30T00:53:59;6.33;;;2.10;;
7659;SDS011;3872;47.902;8.162;2024-01-30T00:56:27;3.77;;;2.07;;
7659;SDS011;3872;47.902;8.162;2024-01-30T00:58:54;6.50;;;2.17;;
7659;SDS011;3872;47.902;8.162;2024-01-30T01:01:22;4.73;;;1.80;;
7659;SDS011;3872;47.902;8.162;2024-01-30T01:03:48;3.80;;;1.67;;
7659;SDS011;3872;47.902;8.162;2024-01-30T01:06:14;4.17;;;1.73;;
7659;SDS011;3872;47.902;8.162;2024-01-30T01:08:40;4.40;;;1.90;;
7659;SDS011;3872;47.902;8.162;2024-01-30T01:11:07;6.67;;;1.80;;
7659;SDS011;3872;47.902;8.162;2024-01-30T01:13:35;3.50;;;1.30;;
7659;SDS011;3872;47.902;8.162;2024-01-30T01:16:01;3.80;;;1.50;;
7659;SDS011;3872;47.902;8.162;2024-01-30T01:18:29;4.47;;;2.07;;
7659;SDS011;3872;47.902;8.162;2024-01-30T01:20:55;4.30;;;1.50;;
7659;SDS011;3872;47.902;8.162;2024-01-30T01:23:22;4.27;;;1.63;;
7659;SDS011;3872;47.902;8.162;2024-01-30T01:25:48;6.30;;;2.07;;
7659;SDS011;3872;47.902;8.162;2024-01-30T01:28:15;3.90;;;1.30;;
7659;SDS011;3872;47.902;8.162;2024-01-30T01:30:43;4.07;;;1.50;;
7659;SDS011;3872;47.902;8.162;2024-01-30T01:33:09;4.50;;;1.60;;
7659;SDS011;3872;47.902;8.162;2024-01-30T01:35:39;4.80;;;1.50;;
7659;SDS011;3872;47.902;8.162;2024-01-30T01:38:05;4.97;;;2.27;;
7659;SDS011;3872;47.902;8.162;2024-01-30T01:40:32;3.90;;;1.80;;
7659;SDS011;3872;47.902;8.162;2024-01-30T01:43:02;3.73;;;1.33;;
7659;SDS011;3872;47.902;8.162;2024-01-30T01:45:29;10.03;;;1.70;;
7659;SDS011;3872;47.902;8.162;2024-01-30T01:47:58;4.60;;;1.90;;
7659;SDS011;3872;47.902;8.162;2024-01-30T01:50:24;4.10;;;1.97;;
7659;SDS011;3872;47.902;8.162;2024-01-30T01:52:51;5.80;;;1.57;;
7659;SDS011;3872;47.902;8.162;2024-01-30T01:55:19;3.90;;;1.40;;
7659;SDS011;3872;47.902;8.162;2024-01-30T01:57:49;4.23;;;1.50;;
7659;SDS011;3872;47.902;8.162;2024-01-30T02:00:16;4.57;;;1.40;;
7659;SDS011;3872;47.902;8.162;2024-01-30T02:02:44;4.10;;;1.87;;
7659;SDS011;3872;47.902;8.162;2024-01-30T02:05:13;4.30;;;1.70;;
7659;SDS011;3872;47.902;8.162;2024-01-30T02:07:40;7.30;;;3.20;;
7659;SDS011;3872;47.902;8.162;2024-01-30T02:10:08;5.73;;;2.43;;
7659;SDS011;3872;47.902;8.162;2024-01-30T02:12:35;7.30;;;3.23;;
7659;SDS011;3872;47.902;8.162;2024-01-30T02:15:02;9.47;;;4.97;;
7659;SDS011;3872;47.902;8.162;2024-01-30T02:17:30;6.47;;;3.63;;
7659;SDS011;3872;47.902;8.162;2024-01-30T02:19:56;7.07;;;4.00;;
7659;SDS011;3872;47.902;8.162;2024-01-30T02:22:29;5.23;;;3.60;;
7659;SDS011;3872;47.902;8.162;2024-01-30T02:24:58;5.63;;;2.13;;
7659;SDS011;3872;47.902;8.162;2024-01-30T02:27:25;5.60;;;1.97;;
7659;SDS011;3872;47.902;8.162;2024-01-30T02:29:51;5.40;;;1.90;;
7659;SDS011;3872;47.902;8.162;2024-01-30T02:32:18;4.07;;;1.80;;
7659;SDS011;3872;47.902;8.162;2024-01-30T02:34:45;3.93;;;1.60;;
7659;SDS011;3872;47.902;8.162;2024-01-30T02:37:11;4.53;;;1.70;;
7659;SDS011;3872;47.902;8.162;2024-01-30T02:39:39;4.57;;;1.53;;
7659;SDS011;3872;47.902;8.162;2024-01-30T02:42:05;4.40;;;1.53;;
7659;SDS011;3872;47.902;8.162;2024-01-30T02:44:32;4.43;;;1.30;;
7659;SDS011;3872;47.902;8.162;2024-01-30T02:47:00;5.70;;;1.80;;
7659;SDS011;3872;47.902;8.162;2024-01-30T02:49:26;4.20;;;1.87;;
7659;SDS011;3872;47.902;8.162;2024-01-30T02:51:53;3.87;;;1.40;;
7659;SDS011;3872;47.902;8.162;2024-01-30T02:54:20;4.67;;;1.90;;
7659;SDS011;3872;47.902;8.162;2024-01-30T02:56:48;4.50;;;1.73;;
7659;SDS011;3872;47.902;8.162;2024-01-30T02:59:14;4.93;;;2.33;;
7659;SDS011;3872;47.902;8.162;2024-01-30T03:01:44;5.13;;;2.37;;
7659;SDS011;3872;47.902;8.162;2024-01-30T03:04:11;4.80;;;1.77;;
7659;SDS011;3872;47.902;8.162;2024-01-30T03:06:38;7.77;;;2.20;;
7659;SDS011;3872;47.902;8.162;2024-01-30T03:09:04;4.90;;;2.30;;
7659;SDS011;3872;47.902;8.162;2024-01-30T03:11:31;6.57;;;2.37;;
7659;SDS011;3872;47.902;8.162;2024-01-30T03:13:59;5.93;;;1.50;;
7659;SDS011;3872;47.902;8.162;2024-01-30T03:16:25;4.27;;;2.03;;
7659;SDS011;3872;47.902;8.162;2024-01-30T03:18:52;3.67;;;1.67;;
7659;SDS011;3872;47.902;8.162;2024-01-30T03:21:18;9.83;;;2.00;;
7659;SDS011;3872;47.902;8.162;2024-01-30T03:23:45;9.37;;;2.20;;
7659;SDS011;3872;47.902;8.162;2024-01-30T03:26:12;5.07;;;2.30;;
7659;SDS011;3872;47.902;8.162;2024-01-30T03:28:39;6.13;;;2.57;;
7659;SDS011;3872;47.902;8.162;2024-01-30T03:31:07;5.23;;;2.47;;
7659;SDS011;3872;47.902;8.162;2024-01-30T03:33:34;5.40;;;2.10;;
7659;SDS011;3872;47.902;8.162;2024-01-30T03:36:02;5.00;;;2.13;;
7659;SDS011;3872;47.902;8.162;2024-01-30T03:38:29;5.10;;;1.83;;
7659;SDS011;3872;47.902;8.162;2024-01-30T03:40:57;4.77;;;2.10;;
7659;SDS011;3872;47.902;8.162;2024-01-30T03:43:24;8.43;;;3.90;;
7659;SDS011;3872;47.902;8.162;2024-01-30T03:45:52;8.70;;;3.43;;
7659;SDS011;3872;47.902;8.162;2024-01-30T03:48:20;9.37;;;4.03;;
7659;SDS011;3872;47.902;8.162;2024-01-30T03:50:47;9.90;;;3.70;;
7659;SDS011;3872;47.902;8.162;2024-01-30T03:53:13;11.13;;;4.57;;
7659;SDS011;3872;47.902;8.162;2024-01-30T03:55:40;6.90;;;2.67;;
7659;SDS011;3872;47.902;8.162;2024-01-30T03:58:07;4.87;;;2.40;;
7659;SDS011;3872;47.902;8.162;2024-01-30T04:00:33;5.00;;;2.60;;
7659;SDS011;3872;47.902;8.162;2024-01-30T04:03:00;4.10;;;1.90;;
7659;SDS011;3872;47.902;8.162;2024-01-30T04:05:28;4.10;;;1.40;;
7659;SDS011;3872;47.902;8.162;2024-01-30T04:07:54;4.40;;;2.13;;
7659;SDS011;3872;47.902;8.162;2024-01-30T04:10:21;4.50;;;2.70;;
7659;SDS011;3872;47.902;8.162;2024-01-30T04:12:48;5.23;;;2.53;;
7659;SDS011;3872;47.902;8.162;2024-01-30T04:15:15;5.00;;;2.10;;
7659;SDS011;3872;47.902;8.162;2024-01-30T04:17:42;4.20;;;2.70;;
7659;SDS011;3872;47.902;8.162;2024-01-30T04:20:11;7.30;;;3.77;;
7659;SDS011;3872;47.902;8.162;2024-01-30T04:22:42;4.17;;;2.50;;
7659;SDS011;3872;47.902;8.162;2024-01-30T04:25:09;5.47;;;2.60;;
7659;SDS011;3872;47.902;8.162;2024-01-30T04:27:35;7.43;;;2.43;;
7659;SDS011;3872;47.902;8.162;2024-01-30T04:30:02;5.03;;;2.50;;
7659;SDS011;3872;47.902;8.162;2024-01-30T04:32:29;4.70;;;2.20;;
7659;SDS011;3872;47.902;8.162;2024-01-30T04:34:56;4.57;;;1.90;;
7659;SDS011;3872;47.902;8.162;2024-01-30T04:37:22;4.63;;;2.40;;
7659;SDS011;3872;47.902;8.162;2024-01-30T04:39:51;4.23;;;1.93;;
7659;SDS011;3872;47.902;8.162;2024-01-30T04:42:17;5.00;;;2.10;;
7659;SDS011;3872;47.902;8.162;2024-01-30T04:44:44;6.33;;;3.20;;
7659;SDS011;3872;47.902;8.162;2024-01-30T04:47:10;6.10;;;2.20;;
7659;SDS011;3872;47.902;8.162;2024-01-30T04:49:37;5.97;;;2.70;;
7659;SDS011;3872;47.902;8.162;2024-01-30T04:52:05;5.07;;;2.30;;
7659;SDS011;3872;47.902;8.162;2024-01-30T04:54:31;4.50;;;2.13;;
7659;SDS011;3872;47.902;8.162;2024-01-30T04:56:59;3.97;;;1.73;;
7659;SDS011;3872;47.902;8.162;2024-01-30T04:59:26;3.90;;;1.87;;
7659;SDS011;3872;47.902;8.162;2024-01-30T05:01:53;4.00;;;2.10;;
7659;SDS011;3872;47.902;8.162;2024-01-30T05:04:19;4.73;;;2.57;;
7659;SDS011;3872;47.902;8.162;2024-01-30T05:06:47;4.10;;;1.70;;
7659;SDS011;3872;47.902;8.162;2024-01-30T05:09:13;4.47;;;2.40;;
7659;SDS011;3872;47.902;8.162;2024-01-30T05:11:40;4.77;;;2.30;;
7659;SDS011;3872;47.902;8.162;2024-01-30T05:14:09;5.80;;;2.37;;
7659;SDS011;3872;47.902;8.162;2024-01-30T05:16:37;4.23;;;1.77;;
7659;SDS011;3872;47.902;8.162;2024-01-30T05:19:03;3.63;;;1.70;;
7659;SDS011;3872;47.902;8.162;2024-01-30T05:21:30;4.80;;;1.83;;
7659;SDS011;3872;47.902;8.162;2024-01-30T05:23:57;4.40;;;1.83;;
7659;SDS011;3872;47.902;8.162;2024-01-30T05:26:23;5.53;;;1.87;;
7659;SDS011;3872;47.902;8.162;2024-01-30T05:28:50;4.07;;;1.43;;
7659;SDS011;3872;47.902;8.162;2024-01-30T05:31:18;4.27;;;1.47;;
7659;SDS011;3872;47.902;8.162;2024-01-30T05:33:44;4.13;;;1.63;;
7659;SDS011;3872;47.902;8.162;2024-01-30T05:36:11;3.90;;;1.80;;
7659;SDS011;3872;47.902;8.162;2024-01-30T05:38:38;4.20;;;1.73;;
7659;SDS011;3872;47.902;8.162;2024-01-30T05:41:05;4.60;;;1.97;;
7659;SDS011;3872;47.902;8.162;2024-01-30T05:43:31;5.23;;;1.67;;
7659;SDS011;3872;47.902;8.162;2024-01-30T05:45:58;6.43;;;1.80;;
7659;SDS011;3872;47.902;8.162;2024-01-30T05:48:26;5.07;;;1.50;;
7659;SDS011;3872;47.902;8.162;2024-01-30T05:50:53;6.27;;;1.50;;
7659;SDS011;3872;47.902;8.162;2024-01-30T05:53:20;4.40;;;2.03;;
7659;SDS011;3872;47.902;8.162;2024-01-30T05:55:47;4.33;;;1.63;;
7659;SDS011;3872;47.902;8.162;2024-01-30T05:58:13;5.43;;;2.03;;
7659;SDS011;3872;47.902;8.162;2024-01-30T06:00:40;5.10;;;2.30;;
7659;SDS011;3872;47.902;8.162;2024-01-30T06:03:07;5.00;;;2.20;;
7659;SDS011;3872;47.902;8.162;2024-01-30T06:05:35;4.30;;;1.90;;
7659;SDS011;3872;47.902;8.162;2024-01-30T06:08:02;3.97;;;2.10;;
7659;SDS011;3872;47.902;8.162;2024-01-30T06:10:28;4.37;;;2.00;;
7659;SDS011;3872;47.902;8.162;2024-01-30T06:12:55;4.17;;;1.80;;
7659;SDS011;3872;47.902;8.162;2024-01-30T06:15:21;7.10;;;2.60;;
7659;SDS011;3872;47.902;8.162;2024-01-30T06:17:48;8.47;;;3.70;;
7659;SDS011;3872;47.902;8.162;2024-01-30T06:20:15;7.17;;;2.27;;
7659;SDS011;3872;47.902;8.162;2024-01-30T06:22:43;7.13;;;2.47;;
7659;SDS011;3872;47.902;8.162;2024-01-30T06:25:10;4.93;;;2.17;;
7659;SDS011;3872;47.902;8.162;2024-01-30T06:27:37;5.73;;;1.47;;
7659;SDS011;3872;47.902;8.162;2024-01-30T06:30:05;4.30;;;1.87;;
7659;SDS011;3872;47.902;8.162;2024-01-30T06:32:32;4.47;;;1.40;;
7659;SDS011;3872;47.902;8.162;2024-01-30T06:34:59;4.70;;;1.70;;
7659;SDS011;3872;47.902;8.162;2024-01-30T06:37:27;3.70;;;1.60;;
7659;SDS011;3872;47.902;8.162;2024-01-30T06:39:55;4.17;;;1.87;;
7659;SDS011;3872;47.902;8.162;2024-01-30T06:42:22;7.83;;;1.77;;
7659;SDS011;3872;47.902;8.162;2024-01-30T06:44:48;6.93;;;2.03;;
7659;SDS011;3872;47.902;8.162;2024-01-30T06:47:15;5.30;;;1.93;;
7659;SDS011;3872;47.902;8.162;2024-01-30T06:49:41;5.77;;;1.67;;
7659;SDS011;3872;47.902;8.162;2024-01-30T06:52:09;3.80;;;1.43;;
7659;SDS011;3872;47.902;8.162;2024-01-30T06:54:36;3.50;;;1.43;;
7659;SDS011;3872;47.902;8.162;2024-01-30T06:57:04;6.50;;;1.93;;
7659;SDS011;3872;47.902;8.162;2024-01-30T06:59:34;4.47;;;1.50;;
7659;SDS011;3872;47.902;8.162;2024-01-30T07:02:00;3.77;;;1.33;;
7659;SDS011;3872;47.902;8.162;2024-01-30T07:04:27;4.27;;;1.77;;
7659;SDS011;3872;47.902;8.162;2024-01-30T07:06:54;4.20;;;1.73;;
7659;SDS011;3872;47.902;8.162;2024-01-30T07:09:20;8.77;;;1.70;;
7659;SDS011;3872;47.902;8.162;2024-01-30T07:11:48;6.83;;;1.80;;
7659;SDS011;3872;47.902;8.162;2024-01-30T07:14:16;4.80;;;1.50;;
7659;SDS011;3872;47.902;8.162;2024-01-30T07:16:43;3.63;;;1.43;;
7659;SDS011;3872;47.902;8.162;2024-01-30T07:19:10;5.53;;;1.93;;
7659;SDS011;3872;47.902;8.162;2024-01-30T07:21:36;4.00;;;1.70;;
7659;SDS011;3872;47.902;8.162;2024-01-30T07:24:05;4.20;;;1.37;;
7659;SDS011;3872;47.902;8.162;2024-01-30T07:26:32;5.10;;;2.30;;
7659;SDS011;3872;47.902;8.162;2024-01-30T07:29:00;5.37;;;2.47;;
7659;SDS011;3872;47.902;8.162;2024-01-30T07:31:29;4.73;;;1.60;;
7659;SDS011;3872;47.902;8.162;2024-01-30T07:33:56;3.50;;;1.10;;
7659;SDS011;3872;47.902;8.162;2024-01-30T07:36:23;4.20;;;1.70;;
7659;SDS011;3872;47.902;8.162;2024-01-30T07:38:49;4.57;;;1.50;;
7659;SDS011;3872;47.902;8.162;2024-01-30T07:41:17;4.23;;;1.57;;
7659;SDS011;3872;47.902;8.162;2024-01-30T07:43:43;3.50;;;1.37;;
7659;SDS011;3872;47.902;8.162;2024-01-30T07:46:10;5.43;;;1.73;;
7659;SDS011;3872;47.902;8.162;2024-01-30T07:48:38;3.60;;;1.43;;
7659;SDS011;3872;47.902;8.162;2024-01-30T07:51:05;4.07;;;1.63;;
7659;SDS011;3872;47.902;8.162;2024-01-30T07:53:31;5.20;;;1.60;;
7659;SDS011;3872;47.902;8.162;2024-01-30T07:55:58;4.63;;;1.87;;
7659;SDS011;3872;47.902;8.162;2024-01-30T07:58:24;3.67;;;1.50;;
7659;SDS011;3872;47.902;8.162;2024-01-30T08:00:52;4.20;;;1.50;;
7659;SDS011;3872;47.902;8.162;2024-01-30T08:03:19;4.77;;;1.80;;
7659;SDS011;3872;47.902;8.162;2024-01-30T08:05:46;4.93;;;1.90;;
7659;SDS011;3872;47.902;8.162;2024-01-30T08:08:13;4.50;;;1.70;;
7659;SDS011;3872;47.902;8.162;2024-01-30T08:10:40;9.60;;;2.53;;
7659;SDS011;3872;47.902;8.162;2024-01-30T08:13:06;6.37;;;2.07;;
7659;SDS011;3872;47.902;8.162;2024-01-30T08:15:34;6.87;;;2.03;;
7659;SDS011;3872;47.902;8.162;2024-01-30T08:18:00;5.10;;;1.87;;
7659;SDS011;3872;47.902;8.162;2024-01-30T08:20:27;5.00;;;2.13;;
7659;SDS011;3872;47.902;8.162;2024-01-30T08:22:55;6.90;;;2.53;;
7659;SDS011;3872;47.902;8.162;2024-01-30T08:25:22;4.83;;;2.33;;
7659;SDS011;3872;47.902;8.162;2024-01-30T08:27:48;6.27;;;2.30;;
7659;SDS011;3872;47.902;8.162;2024-01-30T08:30:15;6.50;;;2.17;;
7659;SDS011;3872;47.902;8.162;2024-01-30T08:32:42;4.60;;;1.77;;
7659;SDS011;3872;47.902;8.162;2024-01-30T08:35:08;19.00;;;6.33;;
7659;SDS011;3872;47.902;8.162;2024-01-30T08:37:35;66.10;;;14.60;;
7659;SDS011;3872;47.902;8.162;2024-01-30T08:40:03;27.70;;;6.13;;
7659;SDS011;3872;47.902;8.162;2024-01-30T08:42:30;16.53;;;3.03;;
7659;SDS011;3872;47.902;8.162;2024-01-30T08:44:57;119.73;;;22.13;;
7659;SDS011;3872;47.902;8.162;2024-01-30T08:47:23;212.00;;;41.87;;
7659;SDS011;3872;47.902;8.162;2024-01-30T08:49:50;54.77;;;11.83;;
7659;SDS011;3872;47.902;8.162;2024-01-30T08:52:17;187.50;;;39.60;;
7659;SDS011;3872;47.902;8.162;2024-01-30T08:54:43;113.27;;;26.27;;
7659;SDS011;3872;47.902;8.162;2024-01-30T08:57:12;28.77;;;9.30;;
7659;SDS011;3872;47.902;8.162;2024-01-30T08:59:38;46.93;;;18.30;;
7659;SDS011;3872;47.902;8.162;2024-01-30T09:02:05;11.23;;;6.97;;
7659;SDS011;3872;47.902;8.162;2024-01-30T09:04:32;26.23;;;16.00;;
7659;SDS011;3872;47.902;8.162;2024-01-30T09:06:58;6.90;;;3.90;;
7659;SDS011;3872;47.902;8.162;2024-01-30T09:09:25;8.33;;;3.40;;
7659;SDS011;3872;47.902;8.162;2024-01-30T09:11:52;8.40;;;3.43;;
7659;SDS011;3872;47.902;8.162;2024-01-30T09:14:20;5.87;;;2.43;;
7659;SDS011;3872;47.902;8.162;2024-01-30T09:16:47;8.70;;;2.93;;
7659;SDS011;3872;47.902;8.162;2024-01-30T09:19:14;6.00;;;2.70;;
7659;SDS011;3872;47.902;8.162;2024-01-30T09:21:40;5.97;;;2.27;;
7659;SDS011;3872;47.902;8.162;2024-01-30T09:24:07;5.83;;;2.60;;
7659;SDS011;3872;47.902;8.162;2024-01-30T09:26:34;6.43;;;3.13;;
7659;SDS011;3872;47.902;8.162;2024-01-30T09:29:04;5.93;;;2.97;;
7659;SDS011;3872;47.902;8.162;2024-01-30T09:31:32;5.67;;;2.80;;
7659;SDS011;3872;47.902;8.162;2024-01-30T09:33:58;5.47;;;2.47;;
7659;SDS011;3872;47.902;8.162;2024-01-30T09:36:25;8.37;;;2.73;;
7659;SDS011;3872;47.902;8.162;2024-01-30T09:38:52;7.03;;;2.90;;
7659;SDS011;3872;47.902;8.162;2024-01-30T09:41:19;5.60;;;2.50;;
7659;SDS011;3872;47.902;8.162;2024-01-30T09:43:50;4.97;;;2.20;;
7659;SDS011;3872;47.902;8.162;2024-01-30T09:46:17;8.33;;;2.90;;
7659;SDS011;3872;47.902;8.162;2024-01-30T09:48:46;5.87;;;2.67;;
7659;SDS011;3872;47.902;8.162;2024-01-30T09:51:14;7.93;;;3.10;;
7659;SDS011;3872;47.902;8.162;2024-01-30T09:53:41;6.83;;;2.67;;
7659;SDS011;3872;47.902;8.162;2024-01-30T09:56:09;5.00;;;2.57;;
7659;SDS011;3872;47.902;8.162;2024-01-30T09:58:36;6.80;;;2.87;;
7659;SDS011;3872;47.902;8.162;2024-01-30T10:01:04;5.53;;;2.40;;
7659;SDS011;3872;47.902;8.162;2024-01-30T10:03:31;5.33;;;2.20;;
7659;SDS011;3872;47.902;8.162;2024-01-30T10:05:59;6.93;;;2.57;;
7659;SDS011;3872;47.902;8.162;2024-01-30T10:08:27;5.50;;;2.70;;
7659;SDS011;3872;47.902;8.162;2024-01-30T10:10:55;7.03;;;1.87;;
7659;SDS011;3872;47.902;8.162;2024-01-30T10:13:21;6.20;;;2.10;;
7659;SDS011;3872;47.902;8.162;2024-01-30T10:15:48;5.10;;;2.77;;
7659;SDS011;3872;47.902;8.162;2024-01-30T10:18:15;8.13;;;2.80;;
7659;SDS011;3872;47.902;8.162;2024-01-30T10:20:42;6.70;;;2.30;;
7659;SDS011;3872;47.902;8.162;2024-01-30T10:23:10;4.77;;;2.07;;
7659;SDS011;3872;47.902;8.162;2024-01-30T10:25:38;7.10;;;2.00;;
7659;SDS011;3872;47.902;8.162;2024-01-30T10:28:05;4.50;;;1.80;;
7659;SDS011;3872;47.902;8.162;2024-01-30T10:30:31;4.90;;;1.80;;
7659;SDS011;3872;47.902;8.162;2024-01-30T10:32:58;3.97;;;1.53;;
7659;SDS011;3872;47.902;8.162;2024-01-30T10:35:25;3.70;;;1.40;;
7659;SDS011;3872;47.902;8.162;2024-01-30T10:37:51;4.43;;;1.47;;
7659;SDS011;3872;47.902;8.162;2024-01-30T10:40:20;5.03;;;2.20;;
7659;SDS011;3872;47.902;8.162;2024-01-30T10:42:48;5.20;;;1.63;;
7659;SDS011;3872;47.902;8.162;2024-01-30T10:45:20;6.13;;;2.20;;
7659;SDS011;3872;47.902;8.162;2024-01-30T10:47:49;4.40;;;1.77;;
7659;SDS011;3872;47.902;8.162;2024-01-30T10:50:16;4.40;;;1.60;;
7659;SDS011;3872;47.902;8.162;2024-01-30T10:52:43;7.03;;;1.50;;
7659;SDS011;3872;47.902;8.162;2024-01-30T10:55:11;4.33;;;1.63;;
7659;SDS011;3872;47.902;8.162;2024-01-30T10:57:39;6.33;;;1.43;;
7659;SDS011;3872;47.902;8.162;2024-01-30T11:00:07;4.40;;;1.40;;
7659;SDS011;3872;47.902;8.162;2024-01-30T11:02:36;4.00;;;1.67;;
7659;SDS011;3872;47.902;8.162;2024-01-30T11:05:04;6.23;;;1.60;;
7659;SDS011;3872;47.902;8.162;2024-01-30T11:07:31;4.00;;;1.13;;
7659;SDS011;3872;47.902;8.162;2024-01-30T11:10:01;5.53;;;1.27;;
7659;SDS011;3872;47.902;8.162;2024-01-30T11:12:29;4.00;;;1.30;;
7659;SDS011;3872;47.902;8.162;2024-01-30T11:15:02;4.20;;;1.23;;
7659;SDS011;3872;47.902;8.162;2024-01-30T11:17:39;4.70;;;1.20;;
7659;SDS011;3872;47.902;8.162;2024-01-30T11:20:10;3.90;;;1.37;;
7659;SDS011;3872;47.902;8.162;2024-01-30T11:22:37;5.23;;;1.10;;
7659;SDS011;3872;47.902;8.162;2024-01-30T11:25:03;4.33;;;1.23;;
7659;SDS011;3872;47.902;8.162;2024-01-30T11:27:30;4.13;;;1.20;;
7659;SDS011;3872;47.902;8.162;2024-01-30T11:30:00;4.00;;;1.13;;
7659;SDS011;3872;47.902;8.162;2024-01-30T11:32:29;3.80;;;1.20;;
7659;SDS011;3872;47.902;8.162;2024-01-30T11:34:55;3.93;;;1.00;;
7659;SDS011;3872;47.902;8.162;2024-01-30T11:37:23;3.60;;;1.27;;
7659;SDS011;3872;47.902;8.162;2024-01-30T11:39:52;10.77;;;1.20;;
7659;SDS011;3872;47.902;8.162;2024-01-30T11:42:19;5.20;;;1.00;;
7659;SDS011;3872;47.902;8.162;2024-01-30T11:44:51;6.63;;;1.50;;
7659;SDS011;3872;47.902;8.162;2024-01-30T11:47:19;5.30;;;1.10;;
7659;SDS011;3872;47.902;8.162;2024-01-30T11:49:45;4.23;;;1.13;;
7659;SDS011;3872;47.902;8.162;2024-01-30T11:52:12;3.97;;;1.00;;
7659;SDS011;3872;47.902;8.162;2024-01-30T11:54:39;6.03;;;1.40;;
7659;SDS011;3872;47.902;8.162;2024-01-30T11:57:06;4.77;;;1.07;;
7659;SDS011;3872;47.902;8.162;2024-01-30T11:59:33;4.00;;;1.10;;
7659;SDS011;3872;47.902;8.162;2024-01-30T12:01:59;3.57;;;1.00;;
7659;SDS011;3872;47.902;8.162;2024-01-30T12:04:29;3.70;;;1.10;;
7659;SDS011;3872;47.902;8.162;2024-01-30T12:06:56;3.77;;;0.93;;
7659;SDS011;3872;47.902;8.162;2024-01-30T12:09:22;3.70;;;1.07;;
7659;SDS011;3872;47.902;8.162;2024-01-30T12:11:49;3.70;;;1.20;;
7659;SDS011;3872;47.902;8.162;2024-01-30T12:14:16;3.63;;;1.20;;
7659;SDS011;3872;47.902;8.162;2024-01-30T12:16:47;5.17;;;1.23;;
7659;SDS011;3872;47.902;8.162;2024-01-30T12:19:21;3.60;;;0.80;;
7659;SDS011;3872;47.902;8.162;2024-01-30T12:21:54;3.90;;;1.03;;
7659;SDS011;3872;47.902;8.162;2024-01-30T12:24:22;4.70;;;1.50;;
7659;SDS011;3872;47.902;8.162;2024-01-30T12:26:48;5.93;;;1.70;;
7659;SDS011;3872;47.902;8.162;2024-01-30T12:29:15;4.10;;;1.30;;
7659;SDS011;3872;47.902;8.162;2024-01-30T12:31:42;4.10;;;1.17;;
7659;SDS011;3872;47.902;8.162;2024-01-30T12:34:09;4.40;;;1.20;;
7659;SDS011;3872;47.902;8.162;2024-01-30T12:36:35;3.90;;;1.13;;
7659;SDS011;3872;47.902;8.162;2024-01-30T12:39:03;5.20;;;1.30;;
7659;SDS011;3872;47.902;8.162;2024-01-30T12:41:31;4.20;;;0.90;;
7659;SDS011;3872;47.902;8.162;2024-01-30T12:43:57;4.30;;;1.23;;
7659;SDS011;3872;47.902;8.162;2024-01-30T12:46:25;3.90;;;1.20;;
7659;SDS011;3872;47.902;8.162;2024-01-30T12:48:53;4.13;;;1.17;;
7659;SDS011;3872;47.902;8.162;2024-01-30T12:51:20;4.00;;;1.50;;
7659;SDS011;3872;47.902;8.162;2024-01-30T12:53:47;4.47;;;1.23;;
7659;SDS011;3872;47.902;8.162;2024-01-30T12:56:15;4.80;;;1.30;;
7659;SDS011;3872;47.902;8.162;2024-01-30T12:58:42;4.63;;;1.40;;
7659;SDS011;3872;47.902;8.162;2024-01-30T13:01:09;3.90;;;1.17;;
7659;SDS011;3872;47.902;8.162;2024-01-30T13:03:36;3.70;;;1.30;;
7659;SDS011;3872;47.902;8.162;2024-01-30T13:06:03;3.80;;;1.37;;
7659;SDS011;3872;47.902;8.162;2024-01-30T13:08:29;4.60;;;1.47;;
7659;SDS011;3872;47.902;8.162;2024-01-30T13:10:56;4.00;;;1.33;;
7659;SDS011;3872;47.902;8.162;2024-01-30T13:13:24;3.90;;;1.13;;
7659;SDS011;3872;47.902;8.162;2024-01-30T13:15:50;4.70;;;1.90;;
7659;SDS011;3872;47.902;8.162;2024-01-30T13:18:17;4.13;;;1.30;;
7659;SDS011;3872;47.902;8.162;2024-01-30T13:20:43;5.50;;;1.53;;
7659;SDS011;3872;47.902;8.162;2024-01-30T13:23:10;3.80;;;1.10;;
7659;SDS011;3872;47.902;8.162;2024-01-30T13:25:37;5.87;;;1.50;;
7659;SDS011;3872;47.902;8.162;2024-01-30T13:28:03;4.10;;;1.30;;
7659;SDS011;3872;47.902;8.162;2024-01-30T13:30:31;5.10;;;1.20;;
7659;SDS011;3872;47.902;8.162;2024-01-30T13:32:58;3.70;;;1.37;;
7659;SDS011;3872;47.902;8.162;2024-01-30T13:35:24;4.03;;;1.23;;
7659;SDS011;3872;47.902;8.162;2024-01-30T13:37:51;3.67;;;1.37;;
7659;SDS011;3872;47.902;8.162;2024-01-30T13:40:18;4.50;;;1.33;;
7659;SDS011;3872;47.902;8.162;2024-01-30T13:42:44;10.63;;;1.23;;
7659;SDS011;3872;47.902;8.162;2024-01-30T13:45:11;4.57;;;1.10;;
7659;SDS011;3872;47.902;8.162;2024-01-30T13:47:40;4.60;;;1.90;;
7659;SDS011;3872;47.902;8.162;2024-01-30T13:50:07;4.40;;;1.50;;
7659;SDS011;3872;47.902;8.162;2024-01-30T13:52:35;4.47;;;1.30;;
7659;SDS011;3872;47.902;8.162;2024-01-30T13:55:02;5.07;;;1.47;;
7659;SDS011;3872;47.902;8.162;2024-01-30T13:57:29;3.57;;;1.17;;
7659;SDS011;3872;47.902;8.162;2024-01-30T13:59:58;4.63;;;1.33;;
7659;SDS011;3872;47.902;8.162;2024-01-30T14:02:24;10.83;;;1.40;;
7659;SDS011;3872;47.902;8.162;2024-01-30T14:04:53;4.03;;;1.23;;
7659;SDS011;3872;47.902;8.162;2024-01-30T14:07:19;3.80;;;1.50;;
7659;SDS011;3872;47.902;8.162;2024-01-30T14:09:47;3.90;;;1.30;;
7659;SDS011;3872;47.902;8.162;2024-01-30T14:12:14;6.80;;;1.60;;
7659;SDS011;3872;47.902;8.162;2024-01-30T14:14:40;4.23;;;1.00;;
7659;SDS011;3872;47.902;8.162;2024-01-30T14:17:07;4.57;;;1.70;;
7659;SDS011;3872;47.902;8.162;2024-01-30T14:19:34;4.47;;;1.50;;
7659;SDS011;3872;47.902;8.162;2024-01-30T14:22:03;4.83;;;1.20;;
7659;SDS011;3872;47.902;8.162;2024-01-30T14:24:30;4.07;;;1.30;;
7659;SDS011;3872;47.902;8.162;2024-01-30T14:26:56;4.40;;;1.60;;
7659;SDS011;3872;47.902;8.162;2024-01-30T14:29:24;3.80;;;1.20;;
7659;SDS011;3872;47.902;8.162;2024-01-30T14:31:51;3.87;;;1.30;;
7659;SDS011;3872;47.902;8.162;2024-01-30T14:34:17;3.80;;;1.17;;
7659;SDS011;3872;47.902;8.162;2024-01-30T14:36:44;7.70;;;1.60;;
7659;SDS011;3872;47.902;8.162;2024-01-30T14:39:12;4.40;;;1.67;;
7659;SDS011;3872;47.902;8.162;2024-01-30T14:41:40;4.70;;;1.40;;
7659;SDS011;3872;47.902;8.162;2024-01-30T14:44:06;9.60;;;1.77;;
7659;SDS011;3872;47.902;8.162;2024-01-30T14:46:34;4.37;;;1.30;;
7659;SDS011;3872;47.902;8.162;2024-01-30T14:49:00;6.93;;;1.47;;
7659;SDS011;3872;47.902;8.162;2024-01-30T14:51:30;4.50;;;1.30;;
7659;SDS011;3872;47.902;8.162;2024-01-30T14:53:58;3.90;;;1.27;;
7659;SDS011;3872;47.902;8.162;2024-01-30T14:56:26;4.00;;;1.60;;
7659;SDS011;3872;47.902;8.162;2024-01-30T14:58:53;5.27;;;1.53;;
7659;SDS011;3872;47.902;8.162;2024-01-30T15:01:21;4.87;;;1.50;;
7659;SDS011;3872;47.902;8.162;2024-01-30T15:03:47;5.60;;;1.47;;
7659;SDS011;3872;47.902;8.162;2024-01-30T15:06:16;10.27;;;1.50;;
7659;SDS011;3872;47.902;8.162;2024-01-30T15:08:44;3.70;;;1.57;;
7659;SDS011;3872;47.902;8.162;2024-01-30T15:11:11;6.20;;;1.27;;
7659;SDS011;3872;47.902;8.162;2024-01-30T15:13:38;4.90;;;1.30;;